Time;durP1;ratioP1;P1;durP2;ratioP2;P2;SDS_P1;SDS_P2;PMS_P1;PMS_P2;Temp;Humidity;BMP_temperature;BMP_pressure;BME280_temperature;BME280_humidity;BME280_pressure;Samples;Min_cycle;Max_cycle;Signal;HPM_P1;HPM_P2
2022/08/15 00:00:50;;;;;;;;;;;18.00;99.90;;;;;;4982849;28;19914;-76
2022/08/15 00:03:30;;;;;;;;;;;17.90;99.90;;;;;;4987234;28;19933;-75
2022/08/15 00:06:00;;;;;;;;;;;17.90;99.90;;;;;;4968525;28;19972;-75
2022/08/15 00:08:27;;;;;;;;;;;18.00;99.90;;;;;;4985494;28;19910;-76
2022/08/15 00:10:53;;;;;;;;;;;18.00;99.90;;;;;;4963530;28;19914;-76
2022/08/15 00:13:23;;;;;;;;;;;18.00;99.90;;;;;;4985134;28;19918;-76
2022/08/15 00:15:49;;;;;;;;;;;18.20;99.90;;;;;;4984505;28;20731;-76
2022/08/15 00:18:16;;;;;;;;;;;18.20;99.90;;;;;;4984253;28;20300;-76
2022/08/15 00:20:41;;;;;;;;;;;18.40;99.90;;;;;;4986549;28;20705;-76
2022/08/15 00:23:12;;;;;;;;;;;18.40;99.90;;;;;;4964134;28;19910;-76
2022/08/15 00:25:39;;;;;;;;;;;18.40;99.90;;;;;;4984709;28;19960;-76
2022/08/15 00:28:05;;;;;;;;;;;18.50;99.90;;;;;;4986237;28;19917;-76
2022/08/15 00:30:31;;;;;;;;;;;18.50;99.90;;;;;;4984239;28;19918;-77
2022/08/15 00:32:57;;;;;;;;;;;18.50;99.90;;;;;;4983588;28;19987;-78
2022/08/15 00:35:36;;;;;;;;;;;18.50;99.90;;;;;;4984747;28;19913;-78
2022/08/15 00:38:12;;;;;;;;;;;18.50;99.90;;;;;;4965056;28;20320;-78
2022/08/15 00:43:23;;;;;;;;;;;18.40;99.90;;;;;;4985847;28;20690;-78
2022/08/15 00:45:49;;;;;;;;;;;18.20;99.90;;;;;;4981653;28;19909;-78
2022/08/15 00:51:00;;;;;;;;;;;18.10;99.90;;;;;;4983724;28;20518;-78
2022/08/15 00:53:27;;;;;;;;;;;18.20;99.90;;;;;;4959556;28;19922;-78
2022/08/15 00:55:53;;;;;;;;;;;18.30;99.90;;;;;;4976241;28;19921;-77
2022/08/15 00:58:19;;;;;;;;;;;18.30;99.90;;;;;;4982165;28;20002;-78
2022/08/15 01:00:49;;;;;;;;;;;18.30;99.90;;;;;;4981493;28;20388;-78
2022/08/15 01:03:16;;;;;;;;;;;18.40;99.90;;;;;;4982607;28;19913;-77
2022/08/15 01:05:46;;;;;;;;;;;18.30;99.90;;;;;;4983756;28;19944;-77
2022/08/15 01:08:12;;;;;;;;;;;18.00;99.90;;;;;;4985413;28;19941;-77
2022/08/15 01:10:38;;;;;;;;;;;17.90;99.90;;;;;;4968096;28;20289;-77
2022/08/15 01:13:04;;;;;;;;;;;17.80;99.90;;;;;;4983570;28;19984;-77
2022/08/15 01:15:31;;;;;;;;;;;17.70;99.90;;;;;;4962471;28;20362;-78
2022/08/15 01:17:57;;;;;;;;;;;17.60;99.90;;;;;;4965724;28;19914;-78
2022/08/15 01:20:24;;;;;;;;;;;17.50;99.90;;;;;;4966591;28;19941;-77
2022/08/15 01:22:49;;;;;;;;;;;17.50;99.90;;;;;;4975587;28;19953;-76
2022/08/15 01:25:25;;;;;;;;;;;17.50;99.90;;;;;;4984673;28;19992;-76
2022/08/15 01:27:56;;;;;;;;;;;17.40;99.90;;;;;;4968017;28;19913;-76
2022/08/15 01:30:25;;;;;;;;;;;17.30;99.90;;;;;;4982894;28;19972;-77
2022/08/15 01:32:52;;;;;;;;;;;17.30;99.90;;;;;;4978099;28;19957;-77
2022/08/15 01:35:17;;;;;;;;;;;17.30;99.90;;;;;;4984213;28;19914;-77
2022/08/15 01:37:43;;;;;;;;;;;17.30;99.90;;;;;;4984999;28;19914;-77
2022/08/15 01:40:20;;;;;;;;;;;17.30;99.90;;;;;;4985958;28;19964;-76
2022/08/15 01:42:48;;;;;;;;;;;17.20;99.90;;;;;;4978015;28;20369;-77
2022/08/15 01:45:19;;;;;;;;;;;17.20;99.90;;;;;;4972926;28;19910;-76
2022/08/15 01:47:47;;;;;;;;;;;17.20;99.90;;;;;;4986167;28;19940;-77
2022/08/15 01:50:23;;;;;;;;;;;17.20;99.90;;;;;;4986322;28;19909;-76
2022/08/15 01:52:52;;;;;;;;;;;17.30;99.90;;;;;;4984397;28;19922;-79
2022/08/15 01:55:20;;;;;;;;;;;17.10;99.90;;;;;;4982979;28;20000;-78
2022/08/15 01:57:46;;;;;;;;;;;17.10;99.90;;;;;;4981170;28;19914;-79
2022/08/15 02:00:14;;;;;;;;;;;17.20;99.90;;;;;;4979840;28;19917;-78
2022/08/15 02:02:41;;;;;;;;;;;17.40;99.90;;;;;;4983488;28;19913;-79
2022/08/15 02:05:07;;;;;;;;;;;17.40;99.90;;;;;;4982250;28;19933;-77
2022/08/15 02:07:33;;;;;;;;;;;17.50;99.90;;;;;;4983042;28;19918;-77
2022/08/15 02:09:58;;;;;;;;;;;17.50;99.90;;;;;;4984443;28;20004;-78
2022/08/15 02:12:29;;;;;;;;;;;17.60;99.90;;;;;;4955275;28;19918;-78
2022/08/15 02:14:55;;;;;;;;;;;17.70;99.90;;;;;;4956766;28;20841;-79
2022/08/15 02:17:21;;;;;;;;;;;17.70;99.90;;;;;;4980948;28;19914;-79
2022/08/15 02:19:48;;;;;;;;;;;17.70;99.90;;;;;;4975031;28;20293;-79
2022/08/15 02:22:15;;;;;;;;;;;17.70;99.90;;;;;;4983486;28;19914;-79
2022/08/15 02:24:40;;;;;;;;;;;17.60;99.90;;;;;;4982979;28;19996;-78
2022/08/15 02:27:06;;;;;;;;;;;17.70;99.90;;;;;;4977320;28;20012;-78
2022/08/15 02:29:32;;;;;;;;;;;17.70;99.90;;;;;;4961726;28;19972;-79
2022/08/15 02:32:00;;;;;;;;;;;17.70;99.90;;;;;;4983880;28;19910;-80
2022/08/15 02:34:25;;;;;;;;;;;17.70;99.90;;;;;;4974845;28;19960;-77
2022/08/15 02:36:52;;;;;;;;;;;17.60;99.90;;;;;;4984159;28;19937;-78
2022/08/15 02:39:18;;;;;;;;;;;17.50;99.90;;;;;;4981432;28;19985;-79
2022/08/15 02:41:49;;;;;;;;;;;17.40;99.90;;;;;;4965234;28;19910;-79
2022/08/15 02:44:16;;;;;;;;;;;17.30;99.90;;;;;;4971314;28;20465;-78
2022/08/15 02:46:43;;;;;;;;;;;17.20;99.90;;;;;;4981613;28;19933;-78
2022/08/15 02:49:12;;;;;;;;;;;17.30;99.90;;;;;;4984099;28;19917;-79
2022/08/15 02:51:38;;;;;;;;;;;17.30;99.90;;;;;;4981855;28;20316;-78
2022/08/15 02:54:05;;;;;;;;;;;17.30;99.90;;;;;;4973709;28;20397;-78
2022/08/15 02:56:31;;;;;;;;;;;17.30;99.90;;;;;;4975151;28;19910;-77
2022/08/15 02:58:57;;;;;;;;;;;17.30;99.90;;;;;;4982890;28;19914;-77
2022/08/15 03:01:23;;;;;;;;;;;17.30;99.90;;;;;;4977183;28;20008;-78
2022/08/15 03:03:51;;;;;;;;;;;17.20;99.90;;;;;;4967686;28;19910;-78
2022/08/15 03:06:18;;;;;;;;;;;17.30;99.90;;;;;;4975004;28;20412;-77
2022/08/15 03:08:45;;;;;;;;;;;17.30;99.90;;;;;;4984333;28;20025;-76
2022/08/15 03:11:11;;;;;;;;;;;17.30;99.90;;;;;;4962249;28;19964;-76
2022/08/15 03:13:40;;;;;;;;;;;17.20;99.90;;;;;;4974170;28;20356;-76
2022/08/15 03:16:06;;;;;;;;;;;17.30;99.90;;;;;;4961641;28;20004;-78
2022/08/15 03:18:33;;;;;;;;;;;17.30;99.90;;;;;;4973652;28;19914;-78
2022/08/15 03:21:00;;;;;;;;;;;17.10;99.90;;;;;;4982658;28;19949;-77
2022/08/15 03:23:27;;;;;;;;;;;17.20;99.90;;;;;;4981515;28;19924;-77
2022/08/15 03:25:53;;;;;;;;;;;17.20;99.90;;;;;;4983309;28;20400;-77
2022/08/15 03:28:24;;;;;;;;;;;17.10;99.90;;;;;;4984061;28;20001;-77
2022/08/15 03:30:50;;;;;;;;;;;17.20;99.90;;;;;;4983662;28;19910;-78
2022/08/15 03:33:16;;;;;;;;;;;17.10;99.90;;;;;;4974757;28;20317;-77
2022/08/15 03:35:44;;;;;;;;;;;17.00;99.90;;;;;;4974062;28;19918;-77
2022/08/15 03:38:10;;;;;;;;;;;17.00;99.90;;;;;;4980777;28;19968;-77
2022/08/15 03:40:36;;;;;;;;;;;17.00;99.90;;;;;;4979798;28;19917;-77
2022/08/15 03:43:02;;;;;;;;;;;17.00;99.90;;;;;;4975667;28;19913;-76
2022/08/15 03:45:29;;;;;;;;;;;17.10;99.90;;;;;;4979818;28;19914;-78
2022/08/15 03:47:55;;;;;;;;;;;17.10;99.90;;;;;;4952347;28;19918;-76
2022/08/15 03:50:21;;;;;;;;;;;17.20;99.90;;;;;;4965695;28;19963;-76
2022/08/15 03:53:00;;;;;;;;;;;17.00;99.90;;;;;;4972889;28;19921;-76
2022/08/15 03:55:26;;;;;;;;;;;17.20;99.90;;;;;;4953273;28;20759;-76
2022/08/15 03:57:53;;;;;;;;;;;17.20;99.90;;;;;;4963590;28;19920;-77
2022/08/15 04:00:20;;;;;;;;;;;17.20;99.90;;;;;;4963933;28;19919;-78
2022/08/15 04:02:46;;;;;;;;;;;17.30;99.90;;;;;;4980828;28;19921;-76
2022/08/15 04:05:11;;;;;;;;;;;17.40;99.90;;;;;;4983462;28;19909;-77
2022/08/15 04:07:37;;;;;;;;;;;17.40;99.90;;;;;;4959986;28;20605;-77
2022/08/15 04:10:08;;;;;;;;;;;17.40;99.90;;;;;;4977998;28;20300;-77
2022/08/15 04:12:35;;;;;;;;;;;17.40;99.90;;;;;;4976801;28;19962;-77
2022/08/15 04:15:04;;;;;;;;;;;17.40;99.90;;;;;;4975266;28;19914;-77
2022/08/15 04:17:29;;;;;;;;;;;17.50;99.90;;;;;;4978739;28;19960;-77
2022/08/15 04:19:55;;;;;;;;;;;17.50;99.90;;;;;;4962620;28;19917;-77
2022/08/15 04:22:28;;;;;;;;;;;17.30;99.90;;;;;;4976729;28;20345;-77
2022/08/15 04:24:54;;;;;;;;;;;17.20;99.90;;;;;;4979296;28;20377;-77
2022/08/15 04:27:19;;;;;;;;;;;17.30;99.90;;;;;;4974028;28;19921;-77
2022/08/15 04:29:45;;;;;;;;;;;17.30;99.90;;;;;;4985837;28;19913;-77
2022/08/15 04:32:11;;;;;;;;;;;17.10;99.90;;;;;;4982857;28;20440;-76
2022/08/15 04:34:38;;;;;;;;;;;17.00;99.90;;;;;;4974565;28;19933;-77
2022/08/15 04:37:04;;;;;;;;;;;17.00;99.90;;;;;;4981220;28;19925;-77
2022/08/15 04:39:29;;;;;;;;;;;17.00;99.90;;;;;;4979449;28;20280;-77
2022/08/15 04:41:55;;;;;;;;;;;17.10;99.90;;;;;;4981852;28;19954;-77
2022/08/15 04:44:20;;;;;;;;;;;17.10;99.90;;;;;;4968421;28;19920;-77
2022/08/15 04:46:46;;;;;;;;;;;17.10;99.90;;;;;;4974602;28;20566;-77
2022/08/15 04:49:12;;;;;;;;;;;17.00;99.90;;;;;;4963427;28;19920;-77
2022/08/15 04:51:37;;;;;;;;;;;16.80;99.90;;;;;;4978228;28;19921;-78
2022/08/15 04:54:03;;;;;;;;;;;16.80;99.90;;;;;;4974150;28;19925;-79
2022/08/15 04:56:29;;;;;;;;;;;16.70;99.90;;;;;;4978564;28;19953;-79
2022/08/15 04:58:54;;;;;;;;;;;16.80;99.90;;;;;;4981757;28;19983;-79
2022/08/15 05:01:20;;;;;;;;;;;16.70;99.90;;;;;;4985475;28;20789;-78
2022/08/15 05:03:45;;;;;;;;;;;16.80;99.90;;;;;;4982814;28;20339;-78
2022/08/15 05:06:11;;;;;;;;;;;16.70;99.90;;;;;;4986708;28;19933;-78
2022/08/15 05:08:37;;;;;;;;;;;16.60;99.90;;;;;;4978251;28;19910;-78
2022/08/15 05:11:08;;;;;;;;;;;16.60;99.90;;;;;;4983561;28;19924;-79
2022/08/15 05:13:35;;;;;;;;;;;16.70;99.90;;;;;;4984872;28;19921;-79
2022/08/15 05:16:01;;;;;;;;;;;16.70;99.90;;;;;;4967969;28;20701;-77
2022/08/15 05:18:27;;;;;;;;;;;16.70;99.90;;;;;;4977449;28;19910;-79
2022/08/15 05:20:53;;;;;;;;;;;16.80;99.90;;;;;;4983058;28;19965;-79
2022/08/15 05:23:20;;;;;;;;;;;16.70;99.90;;;;;;4981684;28;19918;-78
2022/08/15 05:25:48;;;;;;;;;;;16.90;99.90;;;;;;4980227;28;19914;-79
2022/08/15 05:28:14;;;;;;;;;;;17.10;99.90;;;;;;4977255;28;20303;-78
2022/08/15 05:30:40;;;;;;;;;;;17.50;99.90;;;;;;4985255;28;20450;-78
2022/08/15 05:33:13;;;;;;;;;;;17.70;99.90;;;;;;4977079;28;20028;-77
2022/08/15 05:35:42;;;;;;;;;;;17.50;99.90;;;;;;4973547;28;19913;-77
2022/08/15 05:38:16;;;;;;;;;;;17.50;99.90;;;;;;4965239;28;19909;-77
2022/08/15 05:40:53;;;;;;;;;;;17.50;99.90;;;;;;4981139;28;20500;-78
2022/08/15 05:43:25;;;;;;;;;;;17.60;99.90;;;;;;4975537;28;20400;-79
2022/08/15 05:46:04;;;;;;;;;;;17.50;99.90;;;;;;4975357;28;19919;-78
2022/08/15 05:48:31;;;;;;;;;;;17.40;99.90;;;;;;4976422;28;19914;-78
2022/08/15 05:51:29;;;;;;;;;;;17.50;99.90;;;;;;4974311;28;19918;-79
2022/08/15 05:54:21;;;;;;;;;;;17.70;99.90;;;;;;4905860;29;19930;-74
2022/08/15 05:56:57;;;;;;;;;;;17.70;99.90;;;;;;4903231;29;20697;-74
2022/08/15 05:59:29;;;;;;;;;;;17.30;99.90;;;;;;4905366;29;20411;-74
2022/08/15 06:01:59;;;;;;;;;;;17.30;99.90;;;;;;4901455;29;19946;-73
2022/08/15 06:04:27;;;;;;;;;;;17.30;99.90;;;;;;4906389;29;19953;-75
2022/08/15 06:06:53;;;;;;;;;;;17.30;99.90;;;;;;4901391;29;20431;-74
2022/08/15 06:09:25;;;;;;;;;;;17.30;99.90;;;;;;4903538;29;20409;-74
2022/08/15 06:11:53;;;;;;;;;;;17.70;99.90;;;;;;4896253;29;20071;-74
2022/08/15 06:14:36;;;;;;;;;;;18.20;99.90;;;;;;4896786;29;19974;-74
2022/08/15 06:17:23;;;;;;;;;;;19.00;99.90;;;;;;4890027;29;19947;-74
2022/08/15 06:19:50;;;;;;;;;;;18.60;99.90;;;;;;4897412;29;20391;-75
2022/08/15 06:22:34;;;;;;;;;;;18.20;99.90;;;;;;4904398;29;20383;-77
2022/08/15 06:25:02;;;;;;;;;;;18.20;99.90;;;;;;4896132;29;19921;-76
2022/08/15 06:27:34;;;;;;;;;;;18.10;99.90;;;;;;4900041;29;19911;-76
2022/08/15 06:30:03;;;;;;;;;;;18.30;99.90;;;;;;4954356;28;19980;-78
2022/08/15 06:32:49;;;;;;;;;;;18.40;99.90;;;;;;4978300;28;19928;-75
2022/08/15 06:35:23;;;;;;;;;;;18.30;99.90;;;;;;4979098;28;19945;-76
2022/08/15 06:37:57;;;;;;;;;;;18.50;99.90;;;;;;4983005;28;20086;-75
2022/08/15 06:40:41;;;;;;;;;;;18.60;99.90;;;;;;4955787;28;19922;-76
2022/08/15 06:43:08;;;;;;;;;;;18.00;99.90;;;;;;4983360;28;19914;-76
2022/08/15 06:45:35;;;;;;;;;;;18.20;99.90;;;;;;4978370;28;20004;-75
2022/08/15 06:48:26;;;;;;;;;;;18.20;99.90;;;;;;4980932;28;19913;-76
2022/08/15 06:50:53;;;;;;;;;;;18.30;99.90;;;;;;4959147;28;20594;-76
2022/08/15 06:53:28;;;;;;;;;;;18.20;99.90;;;;;;4977288;28;19937;-76
2022/08/15 06:56:10;;;;;;;;;;;18.20;99.90;;;;;;4978382;28;19959;-76
2022/08/15 06:58:39;;;;;;;;;;;18.30;99.90;;;;;;4979717;28;19915;-76
2022/08/15 07:01:09;;;;;;;;;;;18.30;99.90;;;;;;4981216;28;20008;-76
2022/08/15 07:03:43;;;;;;;;;;;18.30;99.90;;;;;;4985865;28;19929;-75
2022/08/15 07:06:10;;;;;;;;;;;18.30;99.90;;;;;;4977191;28;19960;-75
2022/08/15 07:08:44;;;;;;;;;;;18.40;99.90;;;;;;4981105;28;19984;-76
2022/08/15 07:11:19;;;;;;;;;;;18.60;99.90;;;;;;4978997;28;19921;-76
2022/08/15 07:13:50;;;;;;;;;;;18.70;99.90;;;;;;4979988;28;19928;-76
2022/08/15 07:16:23;;;;;;;;;;;18.70;99.90;;;;;;4979687;28;19914;-75
2022/08/15 07:18:50;;;;;;;;;;;18.80;99.90;;;;;;4983137;28;19913;-76
2022/08/15 07:21:17;;;;;;;;;;;18.80;99.90;;;;;;4973115;28;19964;-75
2022/08/15 07:24:01;;;;;;;;;;;18.80;99.90;;;;;;4977107;28;19949;-76
2022/08/15 07:26:32;;;;;;;;;;;18.70;99.90;;;;;;4977039;28;19914;-76
2022/08/15 07:28:59;;;;;;;;;;;19.00;99.90;;;;;;4985752;28;19910;-76
2022/08/15 07:31:29;;;;;;;;;;;19.10;99.90;;;;;;4982232;28;19913;-76
2022/08/15 07:33:56;;;;;;;;;;;19.40;99.90;;;;;;4982537;28;19925;-76
2022/08/15 07:36:26;;;;;;;;;;;19.30;99.90;;;;;;4981607;28;19914;-76
2022/08/15 07:38:52;;;;;;;;;;;19.50;99.90;;;;;;4978939;28;19913;-76
2022/08/15 07:41:23;;;;;;;;;;;19.80;99.90;;;;;;4966563;28;19920;-76
2022/08/15 07:43:56;;;;;;;;;;;20.00;99.90;;;;;;4982022;28;20013;-76
2022/08/15 07:46:34;;;;;;;;;;;19.80;99.90;;;;;;4979150;28;19967;-76
2022/08/15 07:49:02;;;;;;;;;;;20.10;99.90;;;;;;4978881;28;19914;-76
2022/08/15 07:51:38;;;;;;;;;;;20.90;99.90;;;;;;4975802;28;19964;-86
2022/08/15 07:54:19;;;;;;;;;;;20.90;99.90;;;;;;4981627;28;20017;-87
2022/08/15 07:56:58;;;;;;;;;;;21.60;99.90;;;;;;4974698;28;19914;-87
2022/08/15 07:59:42;;;;;;;;;;;21.80;99.90;;;;;;4980924;28;20401;-88
2022/08/15 08:02:24;;;;;;;;;;;24.40;99.90;;;;;;4985267;28;19921;-87
2022/08/15 08:04:49;;;;;;;;;;;22.40;99.90;;;;;;4984846;28;19948;-88
2022/08/15 08:07:19;;;;;;;;;;;21.30;99.90;;;;;;4987750;28;20011;-88
2022/08/15 08:09:44;;;;;;;;;;;21.80;99.90;;;;;;4987732;28;19917;-85
2022/08/15 08:12:30;;;;;;;;;;;24.10;99.90;;;;;;4982493;28;20385;-85
2022/08/15 08:15:04;;;;;;;;;;;23.00;99.90;;;;;;4987293;28;19920;-82
2022/08/15 08:17:38;;;;;;;;;;;22.10;99.90;;;;;;4963581;28;19913;-85
2022/08/15 08:20:21;;;;;;;;;;;24.60;99.90;;;;;;4973522;28;20008;-85
2022/08/15 08:22:53;;;;;;;;;;;25.30;99.90;;;;;;4966751;28;19921;-89
2022/08/15 08:25:25;;;;;;;;;;;26.10;99.90;;;;;;4978985;28;19913;-85
2022/08/15 08:28:02;;;;;;;;;;;24.70;99.90;;;;;;4980564;28;19914;-84
2022/08/15 08:30:33;;;;;;;;;;;23.20;99.90;;;;;;4984565;28;20004;-84
2022/08/15 08:33:09;;;;;;;;;;;24.80;99.90;;;;;;4986562;28;20836;-83
2022/08/15 08:35:53;;;;;;;;;;;27.40;99.90;;;;;;4986526;28;20004;-83
2022/08/15 08:38:30;;;;;;;;;;;29.80;98.00;;;;;;4979959;28;19914;-83
2022/08/15 08:41:29;;;;;;;;;;;28.70;97.60;;;;;;4976832;28;19913;-83
2022/08/15 08:44:03;;;;;;;;;;;26.10;98.50;;;;;;4973609;28;20372;-83
2022/08/15 08:46:41;;;;;;;;;;;25.30;99.90;;;;;;4984151;28;19914;-83
2022/08/15 08:49:19;;;;;;;;;;;24.40;99.90;;;;;;4986088;28;19913;-83
2022/08/15 08:51:57;;;;;;;;;;;24.10;99.90;;;;;;4987301;28;19921;-82
2022/08/15 08:54:26;;;;;;;;;;;24.10;99.90;;;;;;4986131;28;19929;-82
2022/08/15 08:56:53;;;;;;;;;;;23.40;99.90;;;;;;4987034;28;19909;-83
2022/08/15 08:59:29;;;;;;;;;;;22.90;99.90;;;;;;4986923;28;19917;-82
2022/08/15 09:02:17;;;;;;;;;;;22.60;99.90;;;;;;4969122;28;19913;-83
2022/08/15 09:04:46;;;;;;;;;;;22.60;99.90;;;;;;4985091;28;19918;-82
2022/08/15 09:07:16;;;;;;;;;;;22.50;99.90;;;;;;4985973;28;19917;-83
2022/08/15 09:09:43;;;;;;;;;;;22.70;99.90;;;;;;4986099;28;19957;-83
2022/08/15 09:15:00;;;;;;;;;;;23.00;99.90;;;;;;4977099;28;19936;-83
2022/08/15 09:17:27;;;;;;;;;;;23.10;99.90;;;;;;4984983;28;19921;-83
2022/08/15 09:19:58;;;;;;;;;;;23.40;99.90;;;;;;4983777;28;19913;-84
2022/08/15 09:22:24;;;;;;;;;;;23.90;99.90;;;;;;4986064;28;19956;-83
2022/08/15 09:24:49;;;;;;;;;;;23.80;99.90;;;;;;4982703;28;20025;-83
2022/08/15 09:27:35;;;;;;;;;;;24.40;99.90;;;;;;4984306;28;20369;-83
2022/08/15 09:30:05;;;;;;;;;;;27.90;99.90;;;;;;4984126;28;20878;-83
2022/08/15 09:32:40;;;;;;;;;;;27.40;98.10;;;;;;4986468;28;19944;-84
2022/08/15 09:35:07;;;;;;;;;;;25.30;99.90;;;;;;4977504;28;19957;-84
2022/08/15 09:37:51;;;;;;;;;;;23.40;99.90;;;;;;4984189;28;19961;-84
2022/08/15 09:40:19;;;;;;;;;;;22.50;99.90;;;;;;4984092;28;19918;-83
2022/08/15 09:43:03;;;;;;;;;;;22.00;99.90;;;;;;4984709;28;19920;-83
2022/08/15 09:45:40;;;;;;;;;;;22.10;99.90;;;;;;4983131;28;19914;-83
2022/08/15 09:48:30;;;;;;;;;;;22.40;99.90;;;;;;4981648;28;19932;-83
2022/08/15 09:51:05;;;;;;;;;;;23.10;99.90;;;;;;4965630;28;19937;-77
2022/08/15 09:53:36;;;;;;;;;;;27.50;99.90;;;;;;4983682;28;19921;-78
2022/08/15 09:56:03;;;;;;;;;;;26.60;99.90;;;;;;4980471;28;20378;-77
2022/08/15 09:58:31;;;;;;;;;;;28.70;98.80;;;;;;4965390;28;19972;-78
2022/08/15 10:01:07;;;;;;;;;;;30.50;94.30;;;;;;4982635;28;19914;-78
2022/08/15 10:03:45;;;;;;;;;;;28.00;95.40;;;;;;4982194;28;19921;-78
2022/08/15 10:06:15;;;;;;;;;;;26.00;96.80;;;;;;4982760;28;20604;-78
2022/08/15 10:08:50;;;;;;;;;;;25.40;98.30;;;;;;4983947;28;19914;-78
2022/08/15 10:11:16;;;;;;;;;;;24.90;98.50;;;;;;4981953;28;19914;-78
2022/08/15 10:13:42;;;;;;;;;;;24.60;99.90;;;;;;4982303;28;19956;-78
2022/08/15 10:16:28;;;;;;;;;;;25.50;99.90;;;;;;4977137;28;19914;-78
2022/08/15 10:18:55;;;;;;;;;;;26.00;98.40;;;;;;4975927;28;20001;-78
2022/08/15 10:21:22;;;;;;;;;;;27.00;96.60;;;;;;4982603;28;19921;-78
2022/08/15 10:23:52;;;;;;;;;;;25.70;97.00;;;;;;4966484;28;20363;-77
2022/08/15 10:26:27;;;;;;;;;;;25.10;98.50;;;;;;4975956;28;19929;-79
2022/08/15 10:28:58;;;;;;;;;;;24.80;98.00;;;;;;4981686;28;19924;-78
2022/08/15 10:31:25;;;;;;;;;;;24.00;99.90;;;;;;4979854;28;19941;-79
2022/08/15 10:33:54;;;;;;;;;;;23.90;99.90;;;;;;4982740;28;19994;-78
2022/08/15 10:36:24;;;;;;;;;;;24.00;99.90;;;;;;4974431;28;20012;-79
2022/08/15 10:38:52;;;;;;;;;;;23.90;99.90;;;;;;4981672;28;20576;-78
2022/08/15 10:41:45;;;;;;;;;;;24.00;99.90;;;;;;4974866;28;19921;-78
2022/08/15 10:44:11;;;;;;;;;;;24.60;99.90;;;;;;4980550;28;19956;-79
2022/08/15 10:46:45;;;;;;;;;;;24.80;99.10;;;;;;4978709;28;19957;-79
2022/08/15 10:49:19;;;;;;;;;;;25.30;99.10;;;;;;4980199;28;19992;-78
2022/08/15 10:52:01;;;;;;;;;;;25.20;99.70;;;;;;4977689;28;20369;-78
2022/08/15 10:54:39;;;;;;;;;;;25.40;98.30;;;;;;4982219;28;19961;-78
2022/08/15 10:57:06;;;;;;;;;;;25.80;98.60;;;;;;4980001;28;19941;-79
2022/08/15 10:59:34;;;;;;;;;;;25.90;97.10;;;;;;4980058;28;19921;-79
2022/08/15 11:02:05;;;;;;;;;;;25.80;97.20;;;;;;4981844;28;20044;-79
2022/08/15 11:04:35;;;;;;;;;;;25.40;97.30;;;;;;4982610;28;20775;-78
2022/08/15 11:07:15;;;;;;;;;;;25.10;98.30;;;;;;4981614;28;20867;-78
2022/08/15 11:09:41;;;;;;;;;;;25.40;98.10;;;;;;4981467;28;19913;-79
2022/08/15 11:12:07;;;;;;;;;;;25.30;98.60;;;;;;4979594;28;20448;-79
2022/08/15 11:14:39;;;;;;;;;;;25.10;98.80;;;;;;4978767;28;19918;-78
2022/08/15 11:17:13;;;;;;;;;;;25.30;97.70;;;;;;4978348;28;20345;-79
2022/08/15 11:19:42;;;;;;;;;;;25.50;98.00;;;;;;4981417;28;19914;-78
2022/08/15 11:22:17;;;;;;;;;;;25.60;98.70;;;;;;4979464;28;19913;-78
2022/08/15 11:24:43;;;;;;;;;;;25.60;98.60;;;;;;4963026;28;19917;-78
2022/08/15 11:27:16;;;;;;;;;;;25.50;98.70;;;;;;4981536;28;19914;-78
2022/08/15 11:29:43;;;;;;;;;;;25.40;98.20;;;;;;4962987;28;19929;-79
2022/08/15 11:32:12;;;;;;;;;;;25.00;97.70;;;;;;4983554;28;19917;-79
2022/08/15 11:34:40;;;;;;;;;;;25.40;98.30;;;;;;4982941;28;19914;-79
2022/08/15 11:37:09;;;;;;;;;;;25.50;96.50;;;;;;4965480;28;19924;-79
2022/08/15 11:39:37;;;;;;;;;;;25.20;97.50;;;;;;4986892;28;19914;-79
2022/08/15 11:42:04;;;;;;;;;;;25.60;97.00;;;;;;4987413;28;19910;-79
2022/08/15 11:44:52;;;;;;;;;;;25.40;97.20;;;;;;4966714;28;19917;-80
2022/08/15 11:47:18;;;;;;;;;;;25.50;97.30;;;;;;4983846;28;20483;-79
2022/08/15 11:49:46;;;;;;;;;;;25.20;97.60;;;;;;4985943;28;19917;-79
2022/08/15 11:52:11;;;;;;;;;;;25.70;95.90;;;;;;4983551;28;20468;-83
2022/08/15 11:54:37;;;;;;;;;;;25.80;95.60;;;;;;4982825;28;19960;-84
2022/08/15 11:57:07;;;;;;;;;;;25.90;95.70;;;;;;4985315;28;20001;-84
2022/08/15 11:59:37;;;;;;;;;;;26.10;95.70;;;;;;4980145;28;19992;-84
2022/08/15 12:02:05;;;;;;;;;;;26.20;95.70;;;;;;4980662;28;19921;-84
2022/08/15 12:04:33;;;;;;;;;;;26.40;95.60;;;;;;4980795;28;19996;-84
2022/08/15 12:07:09;;;;;;;;;;;26.30;95.70;;;;;;4978980;28;19921;-83
2022/08/15 12:09:35;;;;;;;;;;;26.30;96.00;;;;;;4986373;28;19913;-83
2022/08/15 12:12:00;;;;;;;;;;;26.50;95.10;;;;;;4983219;28;19917;-83
2022/08/15 12:14:27;;;;;;;;;;;26.80;96.60;;;;;;4973416;28;20451;-85
2022/08/15 12:16:55;;;;;;;;;;;26.10;95.40;;;;;;4984280;28;19917;-84
2022/08/15 12:19:41;;;;;;;;;;;26.00;96.40;;;;;;4977437;28;19914;-84
2022/08/15 12:22:13;;;;;;;;;;;25.90;95.20;;;;;;4983032;28;19996;-84
2022/08/15 12:24:41;;;;;;;;;;;25.20;96.30;;;;;;4983074;28;19949;-84
2022/08/15 12:27:07;;;;;;;;;;;25.30;96.30;;;;;;4984357;28;20444;-84
2022/08/15 12:29:33;;;;;;;;;;;25.90;94.00;;;;;;4982178;28;19936;-85
2022/08/15 12:32:00;;;;;;;;;;;26.00;94.00;;;;;;4981279;28;19913;-82
2022/08/15 12:34:32;;;;;;;;;;;26.40;94.50;;;;;;4984427;28;19921;-82
2022/08/15 12:37:00;;;;;;;;;;;26.50;93.00;;;;;;4984643;28;19964;-85
2022/08/15 12:39:25;;;;;;;;;;;26.60;92.70;;;;;;4983651;28;19918;-84
2022/08/15 12:41:53;;;;;;;;;;;26.10;92.00;;;;;;4981752;28;20297;-82
2022/08/15 12:44:23;;;;;;;;;;;26.30;93.20;;;;;;4986722;28;19926;-83
2022/08/15 12:46:49;;;;;;;;;;;26.40;92.70;;;;;;4985146;28;19918;-83
2022/08/15 12:49:15;;;;;;;;;;;26.30;93.20;;;;;;4984855;28;20436;-82
2022/08/15 12:51:40;;;;;;;;;;;26.90;92.00;;;;;;4983394;28;19932;-83
2022/08/15 12:54:06;;;;;;;;;;;26.90;90.60;;;;;;4960931;28;19925;-82
2022/08/15 12:56:31;;;;;;;;;;;27.10;90.10;;;;;;4982109;28;19914;-83
2022/08/15 12:58:58;;;;;;;;;;;26.80;91.20;;;;;;4976219;28;19969;-83
2022/08/15 13:01:24;;;;;;;;;;;26.80;90.60;;;;;;4983633;28;19917;-82
2022/08/15 13:03:49;;;;;;;;;;;26.30;91.80;;;;;;4984426;28;20001;-83
2022/08/15 13:06:26;;;;;;;;;;;26.10;92.00;;;;;;4982376;28;19913;-83
2022/08/15 13:08:52;;;;;;;;;;;25.80;92.20;;;;;;4984009;28;19913;-85
2022/08/15 13:11:18;;;;;;;;;;;25.80;90.90;;;;;;4983494;28;19973;-83
2022/08/15 13:13:44;;;;;;;;;;;26.00;91.20;;;;;;4978643;28;20006;-83
2022/08/15 13:16:09;;;;;;;;;;;25.90;91.00;;;;;;4985313;28;20407;-84
2022/08/15 13:18:36;;;;;;;;;;;25.90;90.10;;;;;;4985227;28;20698;-81
2022/08/15 13:23:51;;;;;;;;;;;26.00;91.50;;;;;;4984397;28;19948;-83
2022/08/15 13:26:18;;;;;;;;;;;26.00;90.70;;;;;;4980083;28;19913;-85
2022/08/15 13:28:45;;;;;;;;;;;26.00;90.80;;;;;;4978885;28;19918;-84
2022/08/15 13:31:15;;;;;;;;;;;25.90;91.30;;;;;;4981362;28;20357;-84
2022/08/15 13:33:41;;;;;;;;;;;26.10;91.90;;;;;;4981963;28;19922;-90
2022/08/15 13:36:10;;;;;;;;;;;25.90;92.30;;;;;;4984124;28;20335;-88
2022/08/15 13:38:41;;;;;;;;;;;25.80;92.20;;;;;;4986322;28;19913;-87
2022/08/15 13:41:09;;;;;;;;;;;25.80;92.60;;;;;;4976713;28;20381;-88
2022/08/15 13:43:36;;;;;;;;;;;25.80;92.50;;;;;;4968588;28;19956;-87
2022/08/15 13:46:04;;;;;;;;;;;25.60;92.80;;;;;;4986301;28;19909;-87
2022/08/15 13:48:41;;;;;;;;;;;25.30;92.60;;;;;;4986188;28;19910;-87
2022/08/15 13:51:13;;;;;;;;;;;25.10;92.40;;;;;;4972463;28;19928;-88
2022/08/15 13:53:41;;;;;;;;;;;25.10;93.50;;;;;;4986424;28;19921;-87
2022/08/15 13:56:07;;;;;;;;;;;25.10;93.00;;;;;;4986133;28;19909;-89
2022/08/15 13:58:32;;;;;;;;;;;24.80;91.00;;;;;;4985701;28;19913;-88
2022/08/15 14:00:59;;;;;;;;;;;24.90;92.40;;;;;;4984968;28;20667;-88
2022/08/15 14:03:26;;;;;;;;;;;25.00;92.50;;;;;;4986486;28;19955;-88
2022/08/15 14:05:52;;;;;;;;;;;25.00;94.40;;;;;;4985881;28;20151;-88
2022/08/15 14:08:18;;;;;;;;;;;24.70;92.20;;;;;;4986160;28;19917;-89
2022/08/15 14:10:44;;;;;;;;;;;24.80;92.20;;;;;;4985999;28;20333;-88
2022/08/15 14:13:09;;;;;;;;;;;24.90;92.30;;;;;;4985650;28;19932;-88
2022/08/15 14:15:35;;;;;;;;;;;24.90;91.00;;;;;;4985883;28;19909;-87
2022/08/15 14:18:02;;;;;;;;;;;25.10;93.00;;;;;;4999394;28;20332;-88
2022/08/15 14:20:28;;;;;;;;;;;25.10;91.10;;;;;;4965295;28;19953;-87
2022/08/15 14:22:54;;;;;;;;;;;24.90;90.20;;;;;;4982763;28;20524;-88
2022/08/15 14:25:20;;;;;;;;;;;24.80;89.80;;;;;;4985560;28;20412;-88
2022/08/15 14:27:46;;;;;;;;;;;24.80;90.90;;;;;;4985602;28;19916;-87
2022/08/15 14:30:13;;;;;;;;;;;25.10;92.00;;;;;;4985350;28;19980;-89
2022/08/15 14:32:39;;;;;;;;;;;25.20;92.80;;;;;;4984388;28;19991;-88
2022/08/15 14:35:06;;;;;;;;;;;25.10;90.80;;;;;;4999175;28;19918;-87
2022/08/15 14:37:31;;;;;;;;;;;25.00;90.40;;;;;;4978589;28;19913;-87
2022/08/15 14:39:58;;;;;;;;;;;24.90;90.80;;;;;;4985816;28;20511;-87
2022/08/15 14:42:24;;;;;;;;;;;25.00;91.00;;;;;;4998711;28;19968;-87